KSJN/SJN METAR and TAF weather

Enter ICAO airport designator
Station Type Date Time Source
KSJN METAR 2019/08/24 17:54 UTC NOAA

KSJN 241754Z AUTO 30008G14KT 10SM CLR 29/06 A3023 RMK AO2 SLP125 T02890061 10289 20172 58001


Station Type Date Time Source
KSJN Decoded METAR 2019/08/24 17:54 UTC NOAA

Station name not available
Aug 24, 2019 - 01:54 PM EDT / 2019.08.24 1754 UTC
Wind: from the WNW (300 degrees) at 9 MPH (8 KT) gusting to 16 MPH (14 KT):0
Visibility: 10 mile(s):0
Sky conditions: clear
Temperature: 84.0 F (28.9 C)
Dew Point: 43.0 F (6.1 C)
Relative Humidity: 23%
Pressure (altimeter): 30.23 in. Hg (1023 hPa)
Pressure tendency: 0.00 inches (0.1 hPa) lower than three hours ago
ob: KSJN 241754Z AUTO 30008G14KT 10SM CLR 29/06 A3023 RMK AO2 SLP125 T02890061 10289 20172 58001
cycle: 18

Station Type Date Time Source
KSJN TAF UTC NOAA

Error!

Example: see airport list